NCAR-RAP Real-Time Weather Data

Output produced by METARs form (06 May 2021  15:08 UTC)
found at http://weather.rap.ucar.edu/surface/
 
KHKS 061453Z 02005KT 10SM CLR 20/09 A3020 RMK AO2 SLP220 T02000094 51011
KHKS 061353Z 08006KT 10SM CLR 19/11 A3020 RMK AO2 SLP219 T01890106
KHKS 061253Z 05004KT 10SM CLR 17/11 A3019 RMK AO2 SLP217 T01670111
KHKS 061153Z 00000KT 10SM CLR 13/11 A3017 RMK AO2 SLP209 T01280106 10161 20122 53007
KHKS 061053Z AUTO 04003KT 10SM CLR 13/10 A3015 RMK AO2 SLP203 T01330100
KHKS 060953Z AUTO 00000KT 10SM CLR 13/10 A3015 RMK AO2 SLP204 T01330100
KHKS 060853Z AUTO 00000KT 10SM CLR 13/10 A3015 RMK AO2 SLP201 T01280100 53012
KHKS 060753Z AUTO 00000KT 10SM CLR 14/11 A3012 RMK AO2 SLP192 T01390106
KHKS 060653Z AUTO 00000KT 10SM CLR 16/11 A3012 RMK AO2 SLP192 T01560106
KHKS 060553Z AUTO 01005KT 10SM CLR 16/11 A3011 RMK AO2 SLP190 T01610106 10211 20156 402280156 58002
KHKS 060453Z AUTO 36003KT 10SM CLR 17/11 A3012 RMK AO2 SLP193 T01670111
KHKS 060353Z AUTO 36003KT 10SM CLR 16/12 A3013 RMK AO2 SLP195 T01560122
KHKS 060253Z AUTO 00000KT 10SM CLR 17/13 A3012 RMK AO2 SLP192 T01670128 53012
KHKS 060153Z 00000KT 10SM CLR 17/14 A3010 RMK AO2 SLP186 T01720139
KHKS 060053Z 00000KT 10SM CLR 19/14 A3009 RMK AO2 SLP182 T01940139